sensor_id;sensor_type;location;lat;lon;timestamp;pressure;altitude;pressure_sealevel;temperature;humidity
69411;BME280;56604;48.652;9.194;2022-11-23T00:00:24;94993.66;;;3.15;88.10
69411;BME280;56604;48.652;9.194;2022-11-23T00:02:56;94990.06;;;3.17;88.71
69411;BME280;56604;48.652;9.194;2022-11-23T00:05:22;94998.28;;;3.25;88.09
69411;BME280;56604;48.652;9.194;2022-11-23T00:07:47;95000.56;;;3.22;88.24
69411;BME280;56604;48.652;9.194;2022-11-23T00:10:13;94998.66;;;3.17;87.65
69411;BME280;56604;48.652;9.194;2022-11-23T00:12:38;94990.75;;;3.12;87.57
69411;BME280;56604;48.652;9.194;2022-11-23T00:15:04;94996.63;;;3.07;88.36
69411;BME280;56604;48.652;9.194;2022-11-23T00:17:30;94995.06;;;3.06;88.32
69411;BME280;56604;48.652;9.194;2022-11-23T00:19:55;94996.63;;;3.07;88.50
69411;BME280;56604;48.652;9.194;2022-11-23T00:22:21;95002.97;;;3.11;88.32
69411;BME280;56604;48.652;9.194;2022-11-23T00:24:46;94995.06;;;3.06;88.47
69411;BME280;56604;48.652;9.194;2022-11-23T00:27:11;94995.53;;;3.03;88.71
69411;BME280;56604;48.652;9.194;2022-11-23T00:29:36;94992.84;;;2.98;88.90
69411;BME280;56604;48.652;9.194;2022-11-23T00:32:02;95003.13;;;2.93;88.74
69411;BME280;56604;48.652;9.194;2022-11-23T00:34:27;94996.28;;;2.87;89.14
69411;BME280;56604;48.652;9.194;2022-11-23T00:36:53;95000.94;;;2.85;88.88
69411;BME280;56604;48.652;9.194;2022-11-23T00:39:18;95001.91;;;2.84;88.78
69411;BME280;56604;48.652;9.194;2022-11-23T00:41:43;95000.56;;;2.81;89.02
69411;BME280;56604;48.652;9.194;2022-11-23T00:44:08;95001.38;;;2.82;89.22
69411;BME280;56604;48.652;9.194;2022-11-23T00:46:34;95002.38;;;2.81;89.31
69411;BME280;56604;48.652;9.194;2022-11-23T00:48:59;94996.28;;;2.87;89.71
69411;BME280;56604;48.652;9.194;2022-11-23T00:51:28;94995.34;;;2.93;89.19
69411;BME280;56604;48.652;9.194;2022-11-23T00:53:54;94996.94;;;2.94;89.31
69411;BME280;56604;48.652;9.194;2022-11-23T00:56:20;94999.44;;;2.89;89.00
69411;BME280;56604;48.652;9.194;2022-11-23T00:58:49;94989.50;;;2.86;88.95
69411;BME280;56604;48.652;9.194;2022-11-23T01:01:16;94991.88;;;2.87;88.86
69411;BME280;56604;48.652;9.194;2022-11-23T01:03:45;94986.66;;;2.87;89.52
69411;BME280;56604;48.652;9.194;2022-11-23T01:06:13;94987.94;;;2.85;89.23
69411;BME280;56604;48.652;9.194;2022-11-23T01:08:40;94991.53;;;2.84;89.36
69411;BME280;56604;48.652;9.194;2022-11-23T01:11:08;94985.78;;;2.93;89.60
69411;BME280;56604;48.652;9.194;2022-11-23T01:13:34;94988.91;;;2.96;89.39
69411;BME280;56604;48.652;9.194;2022-11-23T01:15:59;94983.50;;;2.97;88.96
69411;BME280;56604;48.652;9.194;2022-11-23T01:18:25;94990.59;;;3.02;89.67
69411;BME280;56604;48.652;9.194;2022-11-23T01:20:51;94990.06;;;3.17;89.15
69411;BME280;56604;48.652;9.194;2022-11-23T01:23:16;94989.59;;;3.20;88.24
69411;BME280;56604;48.652;9.194;2022-11-23T01:25:41;94992.13;;;3.31;88.54
69411;BME280;56604;48.652;9.194;2022-11-23T01:28:07;94988.03;;;3.35;88.28
69411;BME280;56604;48.652;9.194;2022-11-23T01:30:32;94991.03;;;3.44;87.99
69411;BME280;56604;48.652;9.194;2022-11-23T01:32:59;94989.47;;;3.43;87.47
69411;BME280;56604;48.652;9.194;2022-11-23T01:35:24;94989.94;;;3.40;87.22
69411;BME280;56604;48.652;9.194;2022-11-23T01:37:50;94987.53;;;3.50;87.23
69411;BME280;56604;48.652;9.194;2022-11-23T01:40:15;94993.59;;;3.56;86.91
69411;BME280;56604;48.652;9.194;2022-11-23T01:45:40;95002.00;;;3.80;87.49
69411;BME280;56604;48.652;9.194;2022-11-23T01:50:52;95006.81;;;3.88;86.41
69411;BME280;56604;48.652;9.194;2022-11-23T01:53:18;95006.19;;;3.81;86.11
69411;BME280;56604;48.652;9.194;2022-11-23T01:55:45;94998.84;;;3.78;85.47
69411;BME280;56604;48.652;9.194;2022-11-23T01:58:14;94995.72;;;3.76;86.08
69411;BME280;56604;48.652;9.194;2022-11-23T02:00:40;95001.84;;;3.70;86.64
69411;BME280;56604;48.652;9.194;2022-11-23T02:03:06;95010.66;;;3.69;86.74
69411;BME280;56604;48.652;9.194;2022-11-23T02:05:38;95011.38;;;3.64;86.45
69411;BME280;56604;48.652;9.194;2022-11-23T02:08:06;95015.66;;;3.70;87.05
69411;BME280;56604;48.652;9.194;2022-11-23T02:10:32;95013.97;;;3.64;86.51
69411;BME280;56604;48.652;9.194;2022-11-23T02:13:01;95017.84;;;3.62;86.89
69411;BME280;56604;48.652;9.194;2022-11-23T02:15:27;95013.34;;;3.57;86.79
69411;BME280;56604;48.652;9.194;2022-11-23T02:17:52;95019.31;;;3.57;86.91
69411;BME280;56604;48.652;9.194;2022-11-23T02:20:18;95015.16;;;3.56;87.04
69411;BME280;56604;48.652;9.194;2022-11-23T02:23:04;95013.81;;;3.54;86.77
69411;BME280;56604;48.652;9.194;2022-11-23T02:28:10;95011.75;;;3.39;86.52
69411;BME280;56604;48.652;9.194;2022-11-23T02:30:37;95010.41;;;3.36;86.76
69411;BME280;56604;48.652;9.194;2022-11-23T02:33:03;95012.59;;;3.28;87.31
69411;BME280;56604;48.652;9.194;2022-11-23T02:35:30;95011.47;;;3.24;86.78
69411;BME280;56604;48.652;9.194;2022-11-23T02:37:56;95013.53;;;3.22;87.54
69411;BME280;56604;48.652;9.194;2022-11-23T02:40:33;95014.91;;;3.12;87.56
69411;BME280;56604;48.652;9.194;2022-11-23T02:42:59;95014.38;;;3.10;87.96
69411;BME280;56604;48.652;9.194;2022-11-23T02:45:42;95018.34;;;3.01;87.67
69411;BME280;56604;48.652;9.194;2022-11-23T02:48:10;95024.66;;;3.05;88.74
69411;BME280;56604;48.652;9.194;2022-11-23T02:50:36;95030.78;;;2.99;88.80
69411;BME280;56604;48.652;9.194;2022-11-23T02:53:01;95022.44;;;2.97;88.58
69411;BME280;56604;48.652;9.194;2022-11-23T02:55:27;95021.75;;;2.90;88.92
69411;BME280;56604;48.652;9.194;2022-11-23T02:57:52;95022.16;;;2.82;88.82
69411;BME280;56604;48.652;9.194;2022-11-23T03:00:18;95021.59;;;2.80;89.54
69411;BME280;56604;48.652;9.194;2022-11-23T03:02:43;95033.53;;;2.81;89.75
69411;BME280;56604;48.652;9.194;2022-11-23T03:05:08;95032.97;;;2.79;88.96
69411;BME280;56604;48.652;9.194;2022-11-23T03:07:34;95024.28;;;2.85;89.53
69411;BME280;56604;48.652;9.194;2022-11-23T03:09:59;95026.00;;;2.79;89.47
69411;BME280;56604;48.652;9.194;2022-11-23T03:12:24;95026.00;;;2.79;89.88
69411;BME280;56604;48.652;9.194;2022-11-23T03:14:50;95021.25;;;2.76;90.02
69411;BME280;56604;48.652;9.194;2022-11-23T03:17:15;95021.59;;;2.80;89.58
69411;BME280;56604;48.652;9.194;2022-11-23T03:19:40;95014.69;;;2.85;89.28
69411;BME280;56604;48.652;9.194;2022-11-23T03:22:06;95024.91;;;2.92;89.40
69411;BME280;56604;48.652;9.194;2022-11-23T03:24:31;95017.91;;;2.92;89.44
69411;BME280;56604;48.652;9.194;2022-11-23T03:26:57;95015.56;;;2.91;89.36
69411;BME280;56604;48.652;9.194;2022-11-23T03:29:22;95017.13;;;2.92;89.43
69411;BME280;56604;48.652;9.194;2022-11-23T03:31:51;95023.25;;;2.86;88.94
69411;BME280;56604;48.652;9.194;2022-11-23T03:34:16;95024.28;;;2.85;89.35
69411;BME280;56604;48.652;9.194;2022-11-23T03:36:41;95023.94;;;2.81;88.87
69411;BME280;56604;48.652;9.194;2022-11-23T03:39:07;95032.53;;;2.82;89.08
69411;BME280;56604;48.652;9.194;2022-11-23T03:41:32;95019.63;;;2.87;88.87
69411;BME280;56604;48.652;9.194;2022-11-23T03:43:57;95017.59;;;2.89;88.67
69411;BME280;56604;48.652;9.194;2022-11-23T03:46:23;95022.09;;;2.93;88.71
69411;BME280;56604;48.652;9.194;2022-11-23T03:48:48;95024.00;;;2.98;89.14
69411;BME280;56604;48.652;9.194;2022-11-23T03:51:13;95017.75;;;3.11;88.64
69411;BME280;56604;48.652;9.194;2022-11-23T03:53:38;95019.41;;;3.17;88.47
69411;BME280;56604;48.652;9.194;2022-11-23T03:56:04;95010.47;;;3.25;87.47
69411;BME280;56604;48.652;9.194;2022-11-23T03:58:29;95007.94;;;3.30;87.44
69411;BME280;56604;48.652;9.194;2022-11-23T04:00:54;95010.06;;;3.33;86.52
69411;BME280;56604;48.652;9.194;2022-11-23T04:03:20;95007.16;;;3.29;86.80
69411;BME280;56604;48.652;9.194;2022-11-23T04:05:45;95006.47;;;3.34;86.66
69411;BME280;56604;48.652;9.194;2022-11-23T04:08:10;95006.22;;;3.35;86.10
69411;BME280;56604;48.652;9.194;2022-11-23T04:10:36;95001.84;;;3.36;85.71
69411;BME280;56604;48.652;9.194;2022-11-23T04:13:01;94995.31;;;3.33;86.75
69411;BME280;56604;48.652;9.194;2022-11-23T04:15:27;94998.44;;;3.35;86.17
69411;BME280;56604;48.652;9.194;2022-11-23T04:17:53;95001.75;;;3.31;86.34
69411;BME280;56604;48.652;9.194;2022-11-23T04:20:19;94999.38;;;3.29;87.01
69411;BME280;56604;48.652;9.194;2022-11-23T04:22:44;95002.22;;;3.28;86.17
69411;BME280;56604;48.652;9.194;2022-11-23T04:25:09;94999.53;;;3.23;87.07
69411;BME280;56604;48.652;9.194;2022-11-23T04:27:35;94992.41;;;3.18;87.36
69411;BME280;56604;48.652;9.194;2022-11-23T04:30:00;94995.81;;;3.19;86.63
69411;BME280;56604;48.652;9.194;2022-11-23T04:32:25;94986.91;;;3.14;87.27
69411;BME280;56604;48.652;9.194;2022-11-23T04:34:51;94990.00;;;3.28;86.44
69411;BME280;56604;48.652;9.194;2022-11-23T04:37:16;94990.22;;;3.27;86.92
69411;BME280;56604;48.652;9.194;2022-11-23T04:39:41;94988.66;;;3.26;87.10
69411;BME280;56604;48.652;9.194;2022-11-23T04:42:09;94989.28;;;3.33;86.59
69411;BME280;56604;48.652;9.194;2022-11-23T04:44:35;94992.44;;;3.35;87.04
69411;BME280;56604;48.652;9.194;2022-11-23T04:47:00;94988.38;;;3.39;86.64
69411;BME280;56604;48.652;9.194;2022-11-23T04:49:25;94990.59;;;3.47;86.82
69411;BME280;56604;48.652;9.194;2022-11-23T04:51:51;94999.41;;;3.46;86.32
69411;BME280;56604;48.652;9.194;2022-11-23T04:54:16;94988.06;;;3.52;85.81
69411;BME280;56604;48.652;9.194;2022-11-23T04:56:41;95000.09;;;3.58;85.29
69411;BME280;56604;48.652;9.194;2022-11-23T04:59:07;94991.00;;;3.56;85.88
69411;BME280;56604;48.652;9.194;2022-11-23T05:01:32;94996.19;;;3.56;86.07
69411;BME280;56604;48.652;9.194;2022-11-23T05:03:57;94998.31;;;3.59;85.24
69411;BME280;56604;48.652;9.194;2022-11-23T05:06:23;94993.44;;;3.63;84.71
69411;BME280;56604;48.652;9.194;2022-11-23T05:08:48;94991.41;;;3.65;84.97
69411;BME280;56604;48.652;9.194;2022-11-23T05:11:13;94991.44;;;3.70;85.10
69411;BME280;56604;48.652;9.194;2022-11-23T05:13:39;94999.66;;;3.62;84.30
69411;BME280;56604;48.652;9.194;2022-11-23T05:16:04;95007.84;;;3.53;84.45
69411;BME280;56604;48.652;9.194;2022-11-23T05:18:30;94994.44;;;3.45;84.93
69411;BME280;56604;48.652;9.194;2022-11-23T05:20:55;94993.22;;;3.35;85.59
69411;BME280;56604;48.652;9.194;2022-11-23T05:23:20;94987.88;;;3.25;85.37
69411;BME280;56604;48.652;9.194;2022-11-23T05:25:45;94990.16;;;3.22;85.83
69411;BME280;56604;48.652;9.194;2022-11-23T05:28:17;94991.31;;;3.14;85.84
69411;BME280;56604;48.652;9.194;2022-11-23T05:30:43;94985.34;;;3.13;85.79
69411;BME280;56604;48.652;9.194;2022-11-23T05:33:08;94993.13;;;3.13;85.76
69411;BME280;56604;48.652;9.194;2022-11-23T05:35:33;94989.59;;;3.20;86.52
69411;BME280;56604;48.652;9.194;2022-11-23T05:38:00;94990.22;;;3.27;85.77
69411;BME280;56604;48.652;9.194;2022-11-23T05:40:25;94989.28;;;3.33;85.44
69411;BME280;56604;48.652;9.194;2022-11-23T05:42:55;94989.16;;;3.40;85.51
69411;BME280;56604;48.652;9.194;2022-11-23T05:45:21;94982.25;;;3.45;85.22
69411;BME280;56604;48.652;9.194;2022-11-23T05:47:56;94986.50;;;3.51;85.37
69411;BME280;56604;48.652;9.194;2022-11-23T05:50:25;94987.59;;;3.55;84.48
69411;BME280;56604;48.652;9.194;2022-11-23T05:52:51;94988.22;;;3.63;84.11
69411;BME280;56604;48.652;9.194;2022-11-23T05:55:16;94989.00;;;3.63;84.17
69411;BME280;56604;48.652;9.194;2022-11-23T05:57:42;94987.28;;;3.69;83.59
69411;BME280;56604;48.652;9.194;2022-11-23T06:00:08;94987.84;;;3.71;83.10
69411;BME280;56604;48.652;9.194;2022-11-23T06:02:37;94987.38;;;3.74;83.46
69411;BME280;56604;48.652;9.194;2022-11-23T06:05:03;94992.47;;;3.69;83.19
69411;BME280;56604;48.652;9.194;2022-11-23T06:07:31;94978.06;;;3.78;82.96
69411;BME280;56604;48.652;9.194;2022-11-23T06:09:56;94984.47;;;3.70;82.93
69411;BME280;56604;48.652;9.194;2022-11-23T06:12:21;94983.13;;;3.68;83.44
69411;BME280;56604;48.652;9.194;2022-11-23T06:14:47;94980.34;;;3.74;82.96
69411;BME280;56604;48.652;9.194;2022-11-23T06:17:12;94983.03;;;3.79;82.96
69411;BME280;56604;48.652;9.194;2022-11-23T06:19:37;94978.47;;;3.70;83.59
69411;BME280;56604;48.652;9.194;2022-11-23T06:22:02;94981.00;;;3.65;83.81
69411;BME280;56604;48.652;9.194;2022-11-23T06:24:28;94983.59;;;3.65;83.46
69411;BME280;56604;48.652;9.194;2022-11-23T06:26:53;94982.94;;;3.57;83.68
69411;BME280;56604;48.652;9.194;2022-11-23T06:29:19;94979.72;;;3.50;84.21
69411;BME280;56604;48.652;9.194;2022-11-23T06:31:45;94984.28;;;3.43;83.92
69411;BME280;56604;48.652;9.194;2022-11-23T06:34:10;94983.81;;;3.46;84.42
69411;BME280;56604;48.652;9.194;2022-11-23T06:36:35;94985.22;;;3.37;84.38
69411;BME280;56604;48.652;9.194;2022-11-23T06:39:01;94989.44;;;3.26;85.14
69411;BME280;56604;48.652;9.194;2022-11-23T06:41:26;94989.69;;;3.25;84.84
69411;BME280;56604;48.652;9.194;2022-11-23T06:43:51;94990.69;;;3.24;85.36
69411;BME280;56604;48.652;9.194;2022-11-23T06:46:17;94988.09;;;3.24;85.13
69411;BME280;56604;48.652;9.194;2022-11-23T06:48:43;94993.41;;;3.29;85.14
69411;BME280;56604;48.652;9.194;2022-11-23T06:51:09;95002.22;;;3.28;85.62
69411;BME280;56604;48.652;9.194;2022-11-23T06:53:34;94993.31;;;3.24;85.35
69411;BME280;56604;48.652;9.194;2022-11-23T06:56:00;95000.00;;;3.20;85.45
69411;BME280;56604;48.652;9.194;2022-11-23T06:58:25;94994.13;;;3.12;85.68
69411;BME280;56604;48.652;9.194;2022-11-23T07:00:51;94996.84;;;3.18;84.85
69411;BME280;56604;48.652;9.194;2022-11-23T07:03:19;94995.00;;;3.18;84.59
69411;BME280;56604;48.652;9.194;2022-11-23T07:05:45;95002.91;;;3.23;85.07
69411;BME280;56604;48.652;9.194;2022-11-23T07:08:10;95002.13;;;3.23;84.96
69411;BME280;56604;48.652;9.194;2022-11-23T07:10:35;95008.03;;;3.35;84.00
69411;BME280;56604;48.652;9.194;2022-11-23T07:13:05;95009.97;;;3.56;83.49
69411;BME280;56604;48.652;9.194;2022-11-23T07:15:31;95009.59;;;3.81;82.72
69411;BME280;56604;48.652;9.194;2022-11-23T07:17:57;95008.69;;;4.10;81.33
69411;BME280;56604;48.652;9.194;2022-11-23T07:20:22;95013.72;;;4.16;80.84
69411;BME280;56604;48.652;9.194;2022-11-23T07:22:58;95009.25;;;4.50;79.59
69411;BME280;56604;48.652;9.194;2022-11-23T07:25:23;95004.59;;;4.74;78.61
69411;BME280;56604;48.652;9.194;2022-11-23T07:27:54;95003.16;;;5.11;78.10
69411;BME280;56604;48.652;9.194;2022-11-23T07:30:20;95000.88;;;5.41;76.44
69411;BME280;56604;48.652;9.194;2022-11-23T07:32:45;95000.31;;;5.72;75.71
69411;BME280;56604;48.652;9.194;2022-11-23T07:35:10;94998.44;;;5.94;74.10
69411;BME280;56604;48.652;9.194;2022-11-23T07:37:36;95000.22;;;6.26;73.25
69411;BME280;56604;48.652;9.194;2022-11-23T07:40:02;95005.25;;;6.38;72.20
69411;BME280;56604;48.652;9.194;2022-11-23T07:42:27;95007.56;;;6.87;71.25
69411;BME280;56604;48.652;9.194;2022-11-23T07:44:53;95003.50;;;7.21;69.59
69411;BME280;56604;48.652;9.194;2022-11-23T07:47:18;95002.22;;;7.44;69.63
69411;BME280;56604;48.652;9.194;2022-11-23T07:49:43;95012.47;;;7.66;68.70
69411;BME280;56604;48.652;9.194;2022-11-23T07:52:09;95011.41;;;7.98;67.07
69411;BME280;56604;48.652;9.194;2022-11-23T07:54:34;95011.63;;;8.32;66.37
69411;BME280;56604;48.652;9.194;2022-11-23T07:56:59;95010.53;;;8.69;63.73
69411;BME280;56604;48.652;9.194;2022-11-23T07:59:25;95017.59;;;8.74;63.87
69411;BME280;56604;48.652;9.194;2022-11-23T08:01:50;95025.44;;;8.79;62.86
69411;BME280;56604;48.652;9.194;2022-11-23T08:04:15;95018.28;;;9.05;61.85
69411;BME280;56604;48.652;9.194;2022-11-23T08:06:40;95015.88;;;9.14;62.50
69411;BME280;56604;48.652;9.194;2022-11-23T08:09:06;95012.56;;;9.42;60.56
69411;BME280;56604;48.652;9.194;2022-11-23T08:11:31;95009.22;;;9.76;60.88
69411;BME280;56604;48.652;9.194;2022-11-23T08:13:56;95009.69;;;9.78;60.30
69411;BME280;56604;48.652;9.194;2022-11-23T08:16:22;95005.69;;;9.91;60.16
69411;BME280;56604;48.652;9.194;2022-11-23T08:18:47;95008.69;;;10.38;58.34
69411;BME280;56604;48.652;9.194;2022-11-23T08:21:15;95011.97;;;10.53;57.24
69411;BME280;56604;48.652;9.194;2022-11-23T08:23:40;95007.00;;;10.76;57.02
69411;BME280;56604;48.652;9.194;2022-11-23T08:26:05;95016.72;;;10.75;56.86
69411;BME280;56604;48.652;9.194;2022-11-23T08:28:31;95019.34;;;10.22;59.15
69411;BME280;56604;48.652;9.194;2022-11-23T08:30:57;95010.53;;;11.09;55.47
69411;BME280;56604;48.652;9.194;2022-11-23T08:33:22;95015.81;;;11.09;54.84
69411;BME280;56604;48.652;9.194;2022-11-23T08:35:47;95018.38;;;11.14;54.94
69411;BME280;56604;48.652;9.194;2022-11-23T08:38:13;95022.97;;;11.03;54.90
69411;BME280;56604;48.652;9.194;2022-11-23T08:40:38;95016.88;;;11.08;54.57
69411;BME280;56604;48.652;9.194;2022-11-23T08:43:04;95021.22;;;11.75;54.26
69411;BME280;56604;48.652;9.194;2022-11-23T08:45:30;95011.91;;;12.01;52.51
69411;BME280;56604;48.652;9.194;2022-11-23T08:47:59;95019.00;;;11.87;52.59
69411;BME280;56604;48.652;9.194;2022-11-23T08:50:25;95022.09;;;11.89;52.85
69411;BME280;56604;48.652;9.194;2022-11-23T08:52:58;95022.16;;;12.03;52.69
69411;BME280;56604;48.652;9.194;2022-11-23T08:55:25;95019.69;;;11.74;53.13
69411;BME280;56604;48.652;9.194;2022-11-23T08:57:54;95021.16;;;11.80;51.74
69411;BME280;56604;48.652;9.194;2022-11-23T09:00:19;95022.44;;;11.63;51.94
69411;BME280;56604;48.652;9.194;2022-11-23T09:02:45;95023.28;;;11.78;52.46
69411;BME280;56604;48.652;9.194;2022-11-23T09:05:10;95021.53;;;11.54;51.48
69411;BME280;56604;48.652;9.194;2022-11-23T09:07:35;95017.75;;;11.79;51.38
69411;BME280;56604;48.652;9.194;2022-11-23T09:10:01;95020.25;;;11.70;52.50
69411;BME280;56604;48.652;9.194;2022-11-23T09:12:26;95022.72;;;11.43;51.70
69411;BME280;56604;48.652;9.194;2022-11-23T09:14:51;95025.97;;;10.44;55.90
69411;BME280;56604;48.652;9.194;2022-11-23T09:17:17;95031.69;;;10.51;54.18
69411;BME280;56604;48.652;9.194;2022-11-23T09:19:42;95039.94;;;9.21;56.66
69411;BME280;56604;48.652;9.194;2022-11-23T09:22:07;95036.50;;;9.75;57.62
69411;BME280;56604;48.652;9.194;2022-11-23T09:24:33;95026.50;;;10.94;53.89
69411;BME280;56604;48.652;9.194;2022-11-23T09:26:58;95035.34;;;9.91;56.32
69411;BME280;56604;48.652;9.194;2022-11-23T09:29:23;95030.28;;;10.00;55.20
69411;BME280;56604;48.652;9.194;2022-11-23T09:31:49;95031.91;;;9.52;56.98
69411;BME280;56604;48.652;9.194;2022-11-23T09:34:15;95033.81;;;10.49;55.84
69411;BME280;56604;48.652;9.194;2022-11-23T09:36:40;95029.13;;;9.77;57.01
69411;BME280;56604;48.652;9.194;2022-11-23T09:39:05;95029.72;;;9.69;55.94
69411;BME280;56604;48.652;9.194;2022-11-23T09:44:38;95037.31;;;9.71;57.59
69411;BME280;56604;48.652;9.194;2022-11-23T09:52:38;95029.91;;;9.33;57.81
69411;BME280;56604;48.652;9.194;2022-11-23T09:55:36;95019.25;;;9.64;57.24
69411;BME280;56604;48.652;9.194;2022-11-23T09:58:04;95016.03;;;9.72;56.42
69411;BME280;56604;48.652;9.194;2022-11-23T10:00:59;95022.56;;;9.35;56.64
69411;BME280;56604;48.652;9.194;2022-11-23T10:03:26;95019.63;;;9.42;57.47
69411;BME280;56604;48.652;9.194;2022-11-23T10:06:01;95016.41;;;9.55;57.29
69411;BME280;56604;48.652;9.194;2022-11-23T10:08:36;95010.16;;;9.90;56.42
69411;BME280;56604;48.652;9.194;2022-11-23T10:14:10;95022.13;;;9.18;57.67
69411;BME280;56604;48.652;9.194;2022-11-23T10:16:55;95010.25;;;9.75;55.87
69411;BME280;56604;48.652;9.194;2022-11-23T10:19:36;95001.41;;;9.66;55.76
69411;BME280;56604;48.652;9.194;2022-11-23T10:22:30;95004.00;;;9.71;55.26
69411;BME280;56604;48.652;9.194;2022-11-23T10:24:53;95019.88;;;9.51;55.95
69411;BME280;56604;48.652;9.194;2022-11-23T10:27:21;95015.44;;;9.85;56.77
69411;BME280;56604;48.652;9.194;2022-11-23T10:29:47;95021.59;;;10.05;55.26
69411;BME280;56604;48.652;9.194;2022-11-23T10:32:37;95025.69;;;10.16;54.86
69411;BME280;56604;48.652;9.194;2022-11-23T10:35:11;95020.94;;;10.18;54.67
69411;BME280;56604;48.652;9.194;2022-11-23T10:37:38;95023.78;;;9.87;54.59
69411;BME280;56604;48.652;9.194;2022-11-23T10:40:30;95015.97;;;9.82;55.25
69411;BME280;56604;48.652;9.194;2022-11-23T10:43:00;95013.28;;;9.87;54.06
69411;BME280;56604;48.652;9.194;2022-11-23T10:45:31;95000.88;;;10.80;52.78
69411;BME280;56604;48.652;9.194;2022-11-23T10:47:58;95005.66;;;10.25;53.67
69411;BME280;56604;48.652;9.194;2022-11-23T10:50:31;95002.66;;;9.74;54.83
69411;BME280;56604;48.652;9.194;2022-11-23T10:55:32;94989.97;;;10.15;53.57
69411;BME280;56604;48.652;9.194;2022-11-23T10:58:24;94991.00;;;10.19;53.46
69411;BME280;56604;48.652;9.194;2022-11-23T11:01:02;94991.06;;;10.09;55.68
69411;BME280;56604;48.652;9.194;2022-11-23T11:03:31;94992.38;;;10.11;54.00
69411;BME280;56604;48.652;9.194;2022-11-23T11:05:57;94994.81;;;10.03;54.65
69411;BME280;56604;48.652;9.194;2022-11-23T11:08:29;94998.00;;;10.00;55.05
69411;BME280;56604;48.652;9.194;2022-11-23T11:11:01;94998.97;;;9.30;56.48
69411;BME280;56604;48.652;9.194;2022-11-23T11:13:41;95002.97;;;9.22;57.81
69411;BME280;56604;48.652;9.194;2022-11-23T11:16:34;94999.94;;;9.44;57.69
69411;BME280;56604;48.652;9.194;2022-11-23T11:19:25;94996.56;;;8.89;58.60
69411;BME280;56604;48.652;9.194;2022-11-23T11:21:51;94994.63;;;8.45;59.37
69411;BME280;56604;48.652;9.194;2022-11-23T11:24:20;94993.56;;;8.31;60.55
69411;BME280;56604;48.652;9.194;2022-11-23T11:26:51;94993.59;;;8.41;60.65
69411;BME280;56604;48.652;9.194;2022-11-23T11:29:54;94997.78;;;8.22;61.63
69411;BME280;56604;48.652;9.194;2022-11-23T11:32:38;94995.44;;;8.15;61.74
69411;BME280;56604;48.652;9.194;2022-11-23T11:35:13;94994.91;;;8.08;60.55
69411;BME280;56604;48.652;9.194;2022-11-23T11:37:45;94994.16;;;7.97;61.93
69411;BME280;56604;48.652;9.194;2022-11-23T11:40:34;94987.09;;;7.93;62.50
69411;BME280;56604;48.652;9.194;2022-11-23T11:43:12;94985.78;;;7.75;60.54
69411;BME280;56604;48.652;9.194;2022-11-23T11:45:45;94977.91;;;7.59;60.91
69411;BME280;56604;48.652;9.194;2022-11-23T11:48:27;94976.34;;;7.58;61.49
69411;BME280;56604;48.652;9.194;2022-11-23T11:51:05;94969.56;;;7.47;62.31
69411;BME280;56604;48.652;9.194;2022-11-23T11:56:40;94968.50;;;7.53;62.96
69411;BME280;56604;48.652;9.194;2022-11-23T11:59:40;94969.00;;;7.30;63.33
69411;BME280;56604;48.652;9.194;2022-11-23T12:05:31;94958.59;;;7.40;63.91
69411;BME280;56604;48.652;9.194;2022-11-23T12:08:06;94952.81;;;7.38;62.91
69411;BME280;56604;48.652;9.194;2022-11-23T12:10:56;94950.19;;;7.38;63.12
69411;BME280;56604;48.652;9.194;2022-11-23T12:13:27;94943.91;;;7.39;62.84
69411;BME280;56604;48.652;9.194;2022-11-23T12:27:09;94939.75;;;7.53;62.09
69411;BME280;56604;48.652;9.194;2022-11-23T12:29:47;94937.66;;;7.60;61.61
69411;BME280;56604;48.652;9.194;2022-11-23T12:32:33;94942.34;;;7.53;61.62
69411;BME280;56604;48.652;9.194;2022-11-23T12:35:41;94940.28;;;7.55;61.89
69411;BME280;56604;48.652;9.194;2022-11-23T12:38:29;94936.34;;;7.53;61.91
69411;BME280;56604;48.652;9.194;2022-11-23T12:46:24;94931.13;;;7.63;62.79
69411;BME280;56604;48.652;9.194;2022-11-23T12:51:59;94923.53;;;7.61;63.22
69411;BME280;56604;48.652;9.194;2022-11-23T12:54:49;94930.31;;;7.62;63.22
69411;BME280;56604;48.652;9.194;2022-11-23T12:57:22;94930.06;;;7.69;63.70
69411;BME280;56604;48.652;9.194;2022-11-23T13:10:42;94918.28;;;7.82;61.71
69411;BME280;56604;48.652;9.194;2022-11-23T13:13:29;94922.72;;;7.81;62.81
69411;BME280;56604;48.652;9.194;2022-11-23T13:23:54;94918.81;;;7.89;61.70
69411;BME280;56604;48.652;9.194;2022-11-23T13:26:21;94910.19;;;7.88;61.59
69411;BME280;56604;48.652;9.194;2022-11-23T13:28:48;94910.44;;;7.87;60.69
69411;BME280;56604;48.652;9.194;2022-11-23T13:33:41;94904.66;;;7.85;61.31
69411;BME280;56604;48.652;9.194;2022-11-23T13:36:32;94906.25;;;7.86;61.93
69411;BME280;56604;48.652;9.194;2022-11-23T13:39:01;94902.34;;;7.78;62.76
69411;BME280;56604;48.652;9.194;2022-11-23T13:46:42;94882.19;;;7.79;63.25
69411;BME280;56604;48.652;9.194;2022-11-23T13:49:40;94893.69;;;7.83;62.49
69411;BME280;56604;48.652;9.194;2022-11-23T13:55:16;94887.66;;;7.87;63.02
69411;BME280;56604;48.652;9.194;2022-11-23T13:57:45;94874.31;;;7.84;62.46
69411;BME280;56604;48.652;9.194;2022-11-23T14:06:24;94871.19;;;7.82;62.76
69411;BME280;56604;48.652;9.194;2022-11-23T14:09:15;94866.25;;;7.80;63.62
69411;BME280;56604;48.652;9.194;2022-11-23T14:12:13;94849.72;;;7.90;62.75
69411;BME280;56604;48.652;9.194;2022-11-23T14:17:23;94850.25;;;7.82;62.38
69411;BME280;56604;48.652;9.194;2022-11-23T14:20:07;94856.03;;;7.79;62.39
69411;BME280;56604;48.652;9.194;2022-11-23T14:26:11;94853.69;;;7.77;62.33
69411;BME280;56604;48.652;9.194;2022-11-23T14:31:36;94857.63;;;7.70;62.83
69411;BME280;56604;48.652;9.194;2022-11-23T14:42:32;94844.56;;;7.54;63.66
69411;BME280;56604;48.652;9.194;2022-11-23T14:45:04;94845.59;;;7.53;63.67
69411;BME280;56604;48.652;9.194;2022-11-23T14:47:30;94838.28;;;7.50;64.34
69411;BME280;56604;48.652;9.194;2022-11-23T14:49:56;94830.69;;;7.54;64.17
69411;BME280;56604;48.652;9.194;2022-11-23T14:52:31;94825.47;;;7.54;64.00
69411;BME280;56604;48.652;9.194;2022-11-23T14:54:59;94832.53;;;7.53;64.14
69411;BME280;56604;48.652;9.194;2022-11-23T14:57:37;94827.06;;;7.39;63.80
69411;BME280;56604;48.652;9.194;2022-11-23T15:00:04;94825.75;;;7.47;64.08